Time;durP1;ratioP1;P1;durP2;ratioP2;P2;SDS_P1;SDS_P2;PMS_P1;PMS_P2;Temp;Humidity;BMP_temperature;BMP_pressure;BME280_temperature;BME280_humidity;BME280_pressure;Samples;Min_cycle;Max_cycle;Signal;HPM_P1;HPM_P2
2022/02/12 00:01:28;;;;;;;31.77;7.22;;;;;;;;;;5069763;28;20261;-68
2022/02/12 00:03:54;;;;;;;20.35;7.47;;;;;;;;;;5069826;28;20103;-68
2022/02/12 00:06:19;;;;;;;26.02;7.32;;;;;;;;;;5069139;28;20467;-68
2022/02/12 00:08:44;;;;;;;21.48;6.68;;;;;;;;;;5069443;28;20440;-68
2022/02/12 00:11:09;;;;;;;21.80;5.95;;;;;;;;;;5069044;28;20040;-68
2022/02/12 00:13:34;;;;;;;18.52;6.30;;;;;;;;;;5069317;28;20444;-67
2022/02/12 00:16:00;;;;;;;21.02;5.38;;;;;;;;;;5069397;28;20016;-67
2022/02/12 00:18:25;;;;;;;17.75;6.18;;;;;;;;;;5069806;28;20017;-67
2022/02/12 00:20:51;;;;;;;19.98;6.93;;;;;;;;;;5070021;28;20526;-67
2022/02/12 00:23:17;;;;;;;17.08;6.88;;;;;;;;;;5069256;28;20020;-67
2022/02/12 00:25:42;;;;;;;24.88;8.13;;;;;;;;;;5070482;28;20055;-67
2022/02/12 00:28:07;;;;;;;23.33;8.02;;;;;;;;;;5070201;28;20438;-68
2022/02/12 00:30:32;;;;;;;24.17;7.80;;;;;;;;;;5070730;28;20154;-68
2022/02/12 00:32:58;;;;;;;28.17;7.50;;;;;;;;;;5069364;28;20024;-67
2022/02/12 00:35:23;;;;;;;28.40;6.85;;;;;;;;;;5068260;28;20013;-67
2022/02/12 00:37:48;;;;;;;26.98;7.32;;;;;;;;;;5069505;28;20017;-67
2022/02/12 00:40:13;;;;;;;24.60;7.53;;;;;;;;;;5069441;28;20455;-67
2022/02/12 00:42:39;;;;;;;24.35;7.82;;;;;;;;;;5068414;28;20028;-67
2022/02/12 00:45:04;;;;;;;21.80;7.68;;;;;;;;;;5068828;28;20023;-67
2022/02/12 00:47:30;;;;;;;29.92;8.55;;;;;;;;;;5069212;28;20024;-67
2022/02/12 00:49:55;;;;;;;19.63;6.10;;;;;;;;;;5050919;28;20032;-67
2022/02/12 00:52:20;;;;;;;21.85;9.25;;;;;;;;;;5050410;28;20021;-67
2022/02/12 00:54:46;;;;;;;18.80;6.53;;;;;;;;;;5069245;28;20048;-67
2022/02/12 00:57:11;;;;;;;15.25;6.28;;;;;;;;;;5051150;28;20017;-67
2022/02/12 00:59:36;;;;;;;18.00;6.10;;;;;;;;;;5068887;28;20052;-67
2022/02/12 01:02:02;;;;;;;17.35;6.35;;;;;;;;;;5069162;28;20384;-67
2022/02/12 01:04:27;;;;;;;16.08;5.70;;;;;;;;;;5069584;28;20111;-67
2022/02/12 01:06:52;;;;;;;21.00;6.05;;;;;;;;;;5072741;28;20050;-67
2022/02/12 01:09:17;;;;;;;30.63;7.32;;;;;;;;;;5073120;28;20038;-67
2022/02/12 01:11:43;;;;;;;14.18;5.78;;;;;;;;;;5072698;28;20043;-67
2022/02/12 01:14:10;;;;;;;23.85;6.75;;;;;;;;;;5071811;28;20397;-67
2022/02/12 01:16:35;;;;;;;21.75;6.38;;;;;;;;;;5072059;28;20017;-67
2022/02/12 01:19:00;;;;;;;27.33;6.80;;;;;;;;;;5055305;28;20104;-67
2022/02/12 01:21:25;;;;;;;29.60;6.88;;;;;;;;;;5071499;28;20081;-67
2022/02/12 01:23:50;;;;;;;29.73;6.55;;;;;;;;;;5070789;28;20028;-67
2022/02/12 01:26:16;;;;;;;26.73;6.88;;;;;;;;;;5071153;28;20067;-67
2022/02/12 01:28:41;;;;;;;21.65;6.78;;;;;;;;;;5071868;28;20444;-67
2022/02/12 01:31:06;;;;;;;25.13;7.57;;;;;;;;;;5071322;28;20052;-68
2022/02/12 01:33:31;;;;;;;23.63;8.10;;;;;;;;;;5070651;28;20036;-67
2022/02/12 01:35:56;;;;;;;33.58;10.23;;;;;;;;;;5071525;28;20492;-67
2022/02/12 01:38:21;;;;;;;41.58;10.20;;;;;;;;;;5071136;28;20028;-68
2022/02/12 01:40:47;;;;;;;36.53;10.65;;;;;;;;;;5069093;28;20078;-67
2022/02/12 01:43:13;;;;;;;35.75;10.25;;;;;;;;;;5051483;28;20477;-67
2022/02/12 01:45:39;;;;;;;31.48;10.60;;;;;;;;;;5070071;28;20031;-67
2022/02/12 01:48:04;;;;;;;33.70;8.60;;;;;;;;;;5071856;28;20020;-66
2022/02/12 01:50:29;;;;;;;26.98;9.15;;;;;;;;;;5071431;28;20235;-67
2022/02/12 01:52:54;;;;;;;28.70;10.27;;;;;;;;;;5052735;28;20099;-67
2022/02/12 01:55:20;;;;;;;28.83;9.32;;;;;;;;;;5071026;28;20024;-68
2022/02/12 01:57:45;;;;;;;31.63;9.30;;;;;;;;;;5071353;28;20103;-68
2022/02/12 02:00:13;;;;;;;35.03;8.18;;;;;;;;;;5070934;28;20032;-67
2022/02/12 02:02:38;;;;;;;29.77;9.43;;;;;;;;;;5070328;28;20059;-68
2022/02/12 02:05:10;;;;;;;30.83;8.63;;;;;;;;;;5070633;28;20052;-67
2022/02/12 02:07:36;;;;;;;25.67;8.10;;;;;;;;;;5070317;28;20678;-67
2022/02/12 02:10:03;;;;;;;27.48;7.18;;;;;;;;;;5051988;28;20029;-68
2022/02/12 02:12:28;;;;;;;23.23;6.80;;;;;;;;;;5033108;28;1047736;-68
2022/02/12 02:15:09;;;;;;;32.85;6.72;;;;;;;;;;5064955;22;20053;-90
2022/02/12 02:17:34;;;;;;;34.17;5.93;;;;;;;;;;5032530;28;20066;-89
2022/02/12 02:20:01;;;;;;;26.13;7.80;;;;;;;;;;5033232;28;20037;-90
2022/02/12 02:22:33;;;;;;;24.33;7.32;;;;;;;;;;5033143;28;20067;-90
2022/02/12 02:25:01;;;;;;;28.00;8.55;;;;;;;;;;5034471;28;20075;-90
2022/02/12 02:27:28;;;;;;;24.65;6.57;;;;;;;;;;5033276;28;20037;-90
2022/02/12 02:30:06;;;;;;;19.55;6.95;;;;;;;;;;5033051;28;20021;-90
2022/02/12 02:32:43;;;;;;;30.25;8.02;;;;;;;;;;5050209;28;20025;-90
2022/02/12 02:35:13;;;;;;;20.48;6.53;;;;;;;;;;5031994;28;20056;-90
2022/02/12 02:37:47;;;;;;;26.55;7.93;;;;;;;;;;5034211;28;20021;-90
2022/02/12 02:40:17;;;;;;;20.15;6.82;;;;;;;;;;5033708;28;20025;-90
2022/02/12 02:42:54;;;;;;;16.55;6.00;;;;;;;;;;5032742;28;20024;-90
2022/02/12 02:45:23;;;;;;;25.10;7.22;;;;;;;;;;5033274;28;20032;-91
2022/02/12 02:47:57;;;;;;;21.55;6.65;;;;;;;;;;5050825;28;20520;-90
2022/02/12 02:56:00;;;;;;;20.52;7.10;;;;;;;;;;5051972;28;20523;-90
2022/02/12 02:58:39;;;;;;;31.08;7.28;;;;;;;;;;5033477;28;20485;-91
2022/02/12 03:01:14;;;;;;;26.77;7.20;;;;;;;;;;5030906;28;20040;-89
2022/02/12 03:03:54;;;;;;;26.83;7.43;;;;;;;;;;5032660;28;20025;-91
2022/02/12 03:06:29;;;;;;;20.27;7.77;;;;;;;;;;5032796;28;20063;-90
2022/02/12 03:09:02;;;;;;;32.75;7.78;;;;;;;;;;5032436;28;20390;-89
2022/02/12 03:11:36;;;;;;;19.83;7.60;;;;;;;;;;5038338;28;20020;-89
2022/02/12 03:14:05;;;;;;;25.98;7.32;;;;;;;;;;5045426;28;20100;-90
2022/02/12 03:16:36;;;;;;;32.50;8.50;;;;;;;;;;5057408;28;20033;-90
2022/02/12 03:21:56;;;;;;;26.33;6.63;;;;;;;;;;5014116;28;20021;-90
2022/02/12 03:24:25;;;;;;;22.02;6.80;;;;;;;;;;5035600;28;20020;-89
2022/02/12 03:26:53;;;;;;;28.77;7.10;;;;;;;;;;5033409;28;20028;-90
2022/02/12 03:29:30;;;;;;;28.15;7.40;;;;;;;;;;5039236;28;20088;-89
2022/02/12 03:31:55;;;;;;;24.80;6.63;;;;;;;;;;5058098;22;20776;-69
2022/02/12 03:34:21;;;;;;;22.05;6.65;;;;;;;;;;5099194;28;20024;-69
2022/02/12 03:36:46;;;;;;;22.52;6.43;;;;;;;;;;5090152;28;20032;-70
2022/02/12 03:39:11;;;;;;;22.70;6.40;;;;;;;;;;5090649;28;20634;-70
2022/02/12 03:41:36;;;;;;;19.60;6.35;;;;;;;;;;5089718;28;20027;-70
2022/02/12 03:44:01;;;;;;;23.05;6.97;;;;;;;;;;5090110;28;20043;-70
2022/02/12 03:46:26;;;;;;;24.27;7.10;;;;;;;;;;5090331;28;20031;-70
2022/02/12 03:48:52;;;;;;;21.73;6.68;;;;;;;;;;5088807;28;20028;-70
2022/02/12 03:51:18;;;;;;;20.05;6.45;;;;;;;;;;5086622;28;20073;-70
2022/02/12 03:53:44;;;;;;;14.90;5.80;;;;;;;;;;5090011;28;20040;-70
2022/02/12 03:56:10;;;;;;;22.10;6.40;;;;;;;;;;5090177;28;20375;-70
2022/02/12 03:58:35;;;;;;;18.15;6.00;;;;;;;;;;5089783;28;20016;-70
2022/02/12 04:01:00;;;;;;;23.17;7.72;;;;;;;;;;5089494;28;20028;-70
2022/02/12 04:03:25;;;;;;;20.77;5.07;;;;;;;;;;5089370;28;20028;-70
2022/02/12 04:05:50;;;;;;;28.95;5.97;;;;;;;;;;5089844;28;20020;-70
2022/02/12 04:08:21;;;;;;;17.92;5.80;;;;;;;;;;5089893;28;20066;-70
2022/02/12 04:10:46;;;;;;;;;;;;;;;;;;5090780;28;20085;-70
2022/02/12 04:13:11;;;;;;;14.38;4.72;;;;;;;;;;5089934;28;19916;-70
2022/02/12 04:15:36;;;;;;;25.75;5.95;;;;;;;;;;5089571;28;20357;-70
2022/02/12 04:18:02;;;;;;;21.40;5.97;;;;;;;;;;5089878;28;20020;-70
2022/02/12 04:20:27;;;;;;;16.13;5.82;;;;;;;;;;5090410;28;20023;-70
2022/02/12 04:22:52;;;;;;;31.70;6.28;;;;;;;;;;5089714;28;20039;-70
2022/02/12 04:25:18;;;;;;;32.50;6.55;;;;;;;;;;5090225;28;20055;-70
2022/02/12 04:27:44;;;;;;;25.38;5.40;;;;;;;;;;5090073;28;20055;-70
2022/02/12 04:30:09;;;;;;;20.25;5.38;;;;;;;;;;5089811;28;20028;-70
2022/02/12 04:32:35;;;;;;;15.50;5.28;;;;;;;;;;5089318;28;20548;-70
2022/02/12 04:35:02;;;;;;;16.83;4.97;;;;;;;;;;5089967;28;20023;-70
2022/02/12 04:37:28;;;;;;;18.52;6.13;;;;;;;;;;5089913;28;20388;-70
2022/02/12 04:39:53;;;;;;;24.60;5.65;;;;;;;;;;5089738;28;20017;-70
2022/02/12 04:42:18;;;;;;;20.65;5.30;;;;;;;;;;5091961;28;20020;-70
2022/02/12 04:44:44;;;;;;;21.33;6.57;;;;;;;;;;5093333;28;20099;-70
2022/02/12 04:47:10;;;;;;;25.67;6.70;;;;;;;;;;5092725;28;20531;-70
2022/02/12 04:49:35;;;;;;;25.25;6.40;;;;;;;;;;5093088;28;20146;-70
2022/02/12 04:52:01;;;;;;;17.55;5.35;;;;;;;;;;5092959;28;20529;-70
2022/02/12 04:54:26;;;;;;;20.25;5.28;;;;;;;;;;5093369;28;20039;-70
2022/02/12 04:56:52;;;;;;;23.27;5.38;;;;;;;;;;5074829;28;20035;-70
2022/02/12 04:59:17;;;;;;;22.45;6.47;;;;;;;;;;5093913;28;20020;-70
2022/02/12 05:01:42;;;;;;;28.92;5.78;;;;;;;;;;5092973;28;20020;-70
2022/02/12 05:04:08;;;;;;;24.67;5.95;;;;;;;;;;5093743;28;20428;-70
2022/02/12 05:06:33;;;;;;;18.95;6.57;;;;;;;;;;5093380;28;20035;-70
2022/02/12 05:08:58;;;;;;;27.73;5.68;;;;;;;;;;5093187;28;20024;-70
2022/02/12 05:11:23;;;;;;;30.17;6.43;;;;;;;;;;5092734;28;20012;-70
2022/02/12 05:13:48;;;;;;;17.48;5.90;;;;;;;;;;5092670;28;20040;-70
2022/02/12 05:16:14;;;;;;;22.42;5.15;;;;;;;;;;5093248;28;20683;-70
2022/02/12 05:18:39;;;;;;;24.67;6.80;;;;;;;;;;5092982;28;20135;-70
2022/02/12 05:21:04;;;;;;;23.35;5.30;;;;;;;;;;5092727;28;20429;-70
2022/02/12 05:23:29;;;;;;;15.75;5.28;;;;;;;;;;5092606;28;20027;-70
2022/02/12 05:25:54;;;;;;;18.30;4.90;;;;;;;;;;5093194;28;20070;-69
2022/02/12 05:28:19;;;;;;;25.55;5.03;;;;;;;;;;5092493;28;20031;-69
2022/02/12 05:30:45;;;;;;;13.70;5.38;;;;;;;;;;5092999;28;20430;-69
2022/02/12 05:33:10;;;;;;;20.15;5.80;;;;;;;;;;5092212;28;20119;-70
2022/02/12 05:35:35;;;;;;;15.63;5.15;;;;;;;;;;5092781;28;20027;-70
2022/02/12 05:38:01;;;;;;;21.85;5.75;;;;;;;;;;5092736;28;20024;-70
2022/02/12 05:40:26;;;;;;;25.40;5.80;;;;;;;;;;5092093;28;20019;-70
2022/02/12 05:42:51;;;;;;;22.85;5.15;;;;;;;;;;5092430;28;20047;-70
2022/02/12 05:45:16;;;;;;;22.17;4.10;;;;;;;;;;5092611;28;20049;-70
2022/02/12 05:47:42;;;;;;;18.73;4.88;;;;;;;;;;5091807;28;20020;-70
2022/02/12 05:50:08;;;;;;;17.17;5.07;;;;;;;;;;5092383;28;20020;-70
2022/02/12 05:52:33;;;;;;;28.08;4.75;;;;;;;;;;5090738;28;20038;-69
2022/02/12 05:54:58;;;;;;;15.02;4.78;;;;;;;;;;5092516;28;20491;-69
2022/02/12 05:57:23;;;;;;;26.92;5.55;;;;;;;;;;5090731;28;20012;-70
2022/02/12 05:59:49;;;;;;;27.38;5.70;;;;;;;;;;5092376;28;20062;-70
2022/02/12 06:02:14;;;;;;;22.92;5.70;;;;;;;;;;5091120;28;20019;-70
2022/02/12 06:04:39;;;;;;;21.52;5.50;;;;;;;;;;5091327;28;20642;-70
2022/02/12 06:07:04;;;;;;;19.65;5.60;;;;;;;;;;5090394;28;20030;-69
2022/02/12 06:09:29;;;;;;;25.55;5.68;;;;;;;;;;5089903;28;20093;-69
2022/02/12 06:11:55;;;;;;;23.50;5.95;;;;;;;;;;5089403;28;20027;-69
2022/02/12 06:14:20;;;;;;;20.48;5.70;;;;;;;;;;5089397;28;20027;-70
2022/02/12 06:16:45;;;;;;;29.80;5.55;;;;;;;;;;5090098;28;20080;-71
2022/02/12 06:19:10;;;;;;;22.15;4.93;;;;;;;;;;5089989;28;20020;-70
2022/02/12 06:21:36;;;;;;;17.02;5.03;;;;;;;;;;5077294;28;20036;-71
2022/02/12 06:24:01;;;;;;;31.80;5.43;;;;;;;;;;5095007;28;20673;-69
2022/02/12 06:26:26;;;;;;;11.18;4.60;;;;;;;;;;5087218;28;20024;-69
2022/02/12 06:28:52;;;;;;;20.05;5.25;;;;;;;;;;5085101;28;20053;-70
2022/02/12 06:31:17;;;;;;;13.23;4.60;;;;;;;;;;5088656;28;20405;-70
2022/02/12 06:33:42;;;;;;;21.35;4.90;;;;;;;;;;5091707;28;20400;-69
2022/02/12 06:36:07;;;;;;;27.52;6.13;;;;;;;;;;5089374;28;20051;-70
2022/02/12 06:38:32;;;;;;;17.75;5.13;;;;;;;;;;5090545;28;20455;-68
2022/02/12 06:40:58;;;;;;;25.00;6.68;;;;;;;;;;5089281;28;20020;-70
2022/02/12 06:43:24;;;;;;;18.83;5.45;;;;;;;;;;5089296;28;20027;-70
2022/02/12 06:45:49;;;;;;;28.02;5.95;;;;;;;;;;5087596;28;20535;-68
2022/02/12 06:48:14;;;;;;;27.27;6.00;;;;;;;;;;5089595;28;20023;-69
2022/02/12 06:50:39;;;;;;;18.25;5.55;;;;;;;;;;5088556;28;20532;-70
2022/02/12 06:53:05;;;;;;;21.95;5.85;;;;;;;;;;5088885;28;20020;-71
2022/02/12 06:55:30;;;;;;;18.80;5.35;;;;;;;;;;5072255;28;20121;-71
2022/02/12 06:57:55;;;;;;;30.30;6.22;;;;;;;;;;5096161;28;20410;-70
2022/02/12 07:00:20;;;;;;;19.15;5.57;;;;;;;;;;5088854;28;20047;-72
2022/02/12 07:02:51;;;;;;;18.48;4.80;;;;;;;;;;5088700;28;20054;-72
2022/02/12 07:05:16;;;;;;;;;;;;;;;;;;5089197;28;20055;-72
2022/02/12 07:07:45;;;;;;;26.13;7.15;;;;;;;;;;5088103;28;20001;-73
2022/02/12 07:10:10;;;;;;;25.85;7.90;;;;;;;;;;5088087;28;20551;-72
2022/02/12 07:12:35;;;;;;;41.15;8.00;;;;;;;;;;5087051;28;20028;-70
2022/02/12 07:15:00;;;;;;;32.88;6.22;;;;;;;;;;5087466;28;20574;-72
2022/02/12 07:17:26;;;;;;;24.88;7.20;;;;;;;;;;5087962;28;20038;-71
2022/02/12 07:19:51;;;;;;;15.55;6.25;;;;;;;;;;5088527;28;20032;-70
2022/02/12 07:22:16;;;;;;;18.58;5.93;;;;;;;;;;5088567;28;20066;-70
2022/02/12 07:24:41;;;;;;;23.88;6.85;;;;;;;;;;5087633;28;20028;-70
2022/02/12 07:27:06;;;;;;;21.48;6.40;;;;;;;;;;5088942;28;20055;-71
2022/02/12 07:29:32;;;;;;;24.77;7.07;;;;;;;;;;5071263;28;20023;-71
2022/02/12 07:31:57;;;;;;;31.00;7.00;;;;;;;;;;5086124;28;20531;-72
2022/02/12 07:34:23;;;;;;;32.00;6.30;;;;;;;;;;5087055;28;20097;-71
2022/02/12 07:36:48;;;;;;;18.60;5.75;;;;;;;;;;5087019;28;20016;-71
2022/02/12 07:39:13;;;;;;;15.88;5.88;;;;;;;;;;5084148;28;20423;-71
2022/02/12 07:41:39;;;;;;;21.08;5.65;;;;;;;;;;5069807;28;20028;-71
2022/02/12 07:44:04;;;;;;;16.55;6.55;;;;;;;;;;5095310;28;20081;-72
2022/02/12 07:46:29;;;;;;;21.73;5.55;;;;;;;;;;5088656;28;20476;-71
2022/02/12 07:48:54;;;;;;;18.30;6.25;;;;;;;;;;5088382;28;20031;-71
2022/02/12 07:51:19;;;;;;;24.20;6.32;;;;;;;;;;5087519;28;20039;-71
2022/02/12 07:53:45;;;;;;;22.00;6.05;;;;;;;;;;5086347;28;20012;-71
2022/02/12 07:56:10;;;;;;;16.23;6.45;;;;;;;;;;5089648;28;20054;-71
2022/02/12 07:58:35;;;;;;;20.30;5.93;;;;;;;;;;5089247;28;20016;-72
2022/02/12 08:01:00;;;;;;;23.10;5.03;;;;;;;;;;5089762;28;20269;-71
2022/02/12 08:03:25;;;;;;;27.17;6.90;;;;;;;;;;5089352;28;20024;-72
2022/02/12 08:05:51;;;;;;;21.17;6.25;;;;;;;;;;5083574;28;20134;-72
2022/02/12 08:08:16;;;;;;;24.42;6.28;;;;;;;;;;5086093;28;20028;-71
2022/02/12 08:13:25;;;;;;;22.65;6.47;;;;;;;;;;5086893;28;20105;-70
2022/02/12 08:15:50;;;;;;;17.48;4.45;;;;;;;;;;5086680;28;20468;-72
2022/02/12 08:18:15;;;;;;;23.98;5.57;;;;;;;;;;5083927;28;20047;-71
2022/02/12 08:20:41;;;;;;;9.85;4.43;;;;;;;;;;5096834;28;20015;-72
2022/02/12 08:23:06;;;;;;;23.48;5.07;;;;;;;;;;5102978;28;20023;-72
2022/02/12 08:25:31;;;;;;;12.60;4.10;;;;;;;;;;5093368;28;20028;-70
2022/02/12 08:27:56;;;;;;;18.85;5.28;;;;;;;;;;5094765;28;20114;-72
2022/02/12 08:30:23;;;;;;;21.85;4.68;;;;;;;;;;5093101;28;20031;-71
2022/02/12 08:32:48;;;;;;;23.83;4.93;;;;;;;;;;5093131;28;20020;-72
2022/02/12 08:35:14;;;;;;;14.30;5.03;;;;;;;;;;5092919;28;20061;-71
2022/02/12 08:37:41;;;;;;;24.98;5.35;;;;;;;;;;5091457;28;20556;-72
2022/02/12 08:40:07;;;;;;;24.73;4.88;;;;;;;;;;5090699;28;20385;-72
2022/02/12 08:42:32;;;;;;;23.35;5.13;;;;;;;;;;5093736;28;20268;-71
2022/02/12 08:44:57;;;;;;;19.55;5.20;;;;;;;;;;5093511;28;20539;-72
2022/02/12 08:47:23;;;;;;;29.13;6.25;;;;;;;;;;5090650;28;20020;-71
2022/02/12 08:49:48;;;;;;;15.65;5.35;;;;;;;;;;5090710;28;20475;-72
2022/02/12 08:52:13;;;;;;;18.77;5.63;;;;;;;;;;5090474;28;20028;-71
2022/02/12 08:54:38;;;;;;;19.45;6.18;;;;;;;;;;5089844;28;20028;-72
2022/02/12 08:57:04;;;;;;;27.60;5.97;;;;;;;;;;5072391;28;20539;-70
2022/02/12 08:59:29;;;;;;;28.65;7.03;;;;;;;;;;5090672;28;20024;-72
2022/02/12 09:01:55;;;;;;;26.17;6.80;;;;;;;;;;5072469;28;20020;-72
2022/02/12 09:04:20;;;;;;;22.75;7.32;;;;;;;;;;5087988;28;20024;-70
2022/02/12 09:06:46;;;;;;;14.30;5.35;;;;;;;;;;5101223;28;20028;-72
2022/02/12 09:09:11;;;;;;;19.02;6.47;;;;;;;;;;5089641;28;20032;-71
2022/02/12 09:11:38;;;;;;;29.08;10.52;;;;;;;;;;5090863;28;20073;-70
2022/02/12 09:14:03;;;;;;;19.25;5.38;;;;;;;;;;5088024;28;20069;-72
2022/02/12 09:16:28;;;;;;;19.80;6.03;;;;;;;;;;5090805;28;20020;-70
2022/02/12 09:18:54;;;;;;;14.63;6.22;;;;;;;;;;5089263;28;20024;-72
2022/02/12 09:21:20;;;;;;;29.15;6.95;;;;;;;;;;5085920;28;20024;-72
2022/02/12 09:23:46;;;;;;;21.50;5.53;;;;;;;;;;5091593;28;20077;-72
2022/02/12 09:26:11;;;;;;;20.63;5.57;;;;;;;;;;5090524;28;20028;-72
2022/02/12 09:28:36;;;;;;;19.08;4.35;;;;;;;;;;5091493;28;20032;-72
2022/02/12 09:31:01;;;;;;;21.05;4.43;;;;;;;;;;5091845;28;20034;-70
2022/02/12 09:33:26;;;;;;;17.75;5.68;;;;;;;;;;5091176;28;20081;-71
2022/02/12 09:35:56;;;;;;;19.92;5.07;;;;;;;;;;5092541;28;20020;-71
2022/02/12 09:38:25;;;;;;;18.60;4.78;;;;;;;;;;5092052;28;20111;-71
2022/02/12 09:40:51;;;;;;;14.38;3.88;;;;;;;;;;5091383;28;20020;-72
2022/02/12 09:43:17;;;;;;;17.35;3.90;;;;;;;;;;5092406;28;20308;-70
2022/02/12 09:45:49;;;;;;;13.52;4.55;;;;;;;;;;5077924;28;20028;-72
2022/02/12 09:48:14;;;;;;;22.80;4.57;;;;;;;;;;5096744;28;20388;-68
2022/02/12 09:50:41;;;;;;;14.98;2.92;;;;;;;;;;5093010;28;20016;-70
2022/02/12 09:53:07;;;;;;;9.30;2.40;;;;;;;;;;5074629;28;20519;-70
2022/02/12 09:55:35;;;;;;;19.27;4.15;;;;;;;;;;5088816;28;20051;-70
2022/02/12 09:58:00;;;;;;;15.98;3.60;;;;;;;;;;5082774;28;20031;-72
2022/02/12 10:00:25;;;;;;;15.88;4.32;;;;;;;;;;5089591;28;20314;-72
2022/02/12 10:02:50;;;;;;;8.23;2.30;;;;;;;;;;5060497;28;20021;-71
2022/02/12 10:05:24;;;;;;;16.83;4.03;;;;;;;;;;5086762;28;20266;-71
2022/02/12 10:07:50;;;;;;;11.38;2.58;;;;;;;;;;5090454;28;20484;-69
2022/02/12 10:10:16;;;;;;;5.38;2.03;;;;;;;;;;5090039;28;20032;-71
2022/02/12 10:12:42;;;;;;;5.80;1.90;;;;;;;;;;5076082;28;20020;-71
2022/02/12 10:15:11;;;;;;;10.90;2.65;;;;;;;;;;5088450;28;20062;-72
2022/02/12 10:17:36;;;;;;;8.20;2.67;;;;;;;;;;5094286;28;20099;-70
2022/02/12 10:20:01;;;;;;;7.70;1.77;;;;;;;;;;5093745;28;20127;-70
2022/02/12 10:22:26;;;;;;;11.50;3.03;;;;;;;;;;5101066;28;20019;-70
2022/02/12 10:24:52;;;;;;;8.23;2.63;;;;;;;;;;5086703;28;20023;-70
2022/02/12 10:27:18;;;;;;;6.10;2.22;;;;;;;;;;5090835;28;20016;-71
2022/02/12 10:29:45;;;;;;;14.60;3.20;;;;;;;;;;5093097;28;20081;-71
2022/02/12 10:32:11;;;;;;;11.55;2.70;;;;;;;;;;5100006;28;20027;-71
2022/02/12 10:34:37;;;;;;;10.57;3.03;;;;;;;;;;5094230;28;20073;-71
2022/02/12 10:37:03;;;;;;;8.70;2.92;;;;;;;;;;5090828;28;20054;-71
2022/02/12 10:39:28;;;;;;;18.48;4.10;;;;;;;;;;5095782;28;20051;-71
2022/02/12 10:42:06;;;;;;;9.60;2.55;;;;;;;;;;5092207;28;20482;-71
2022/02/12 10:44:32;;;;;;;9.00;2.72;;;;;;;;;;5100904;28;20016;-72
2022/02/12 10:46:57;;;;;;;13.05;2.83;;;;;;;;;;5091926;28;20020;-71
2022/02/12 10:49:23;;;;;;;8.27;2.38;;;;;;;;;;5098330;28;20042;-70
2022/02/12 10:51:51;;;;;;;19.80;2.95;;;;;;;;;;5079597;28;20024;-70
2022/02/12 10:54:19;;;;;;;14.93;3.03;;;;;;;;;;5091503;28;20088;-71
2022/02/12 10:56:48;;;;;;;11.38;2.53;;;;;;;;;;5073408;28;20111;-72
2022/02/12 10:59:15;;;;;;;19.17;3.17;;;;;;;;;;5092101;28;20016;-73
2022/02/12 11:01:40;;;;;;;29.50;2.85;;;;;;;;;;5079879;28;20488;-72
2022/02/12 11:04:06;;;;;;;12.65;3.60;;;;;;;;;;5096915;28;20057;-70
2022/02/12 11:06:32;;;;;;;10.40;2.58;;;;;;;;;;5089174;28;20093;-71
2022/02/12 11:08:57;;;;;;;22.05;3.03;;;;;;;;;;5100681;28;20077;-70
2022/02/12 11:11:24;;;;;;;14.27;2.85;;;;;;;;;;5082489;28;20024;-76
2022/02/12 11:13:49;;;;;;;14.05;2.50;;;;;;;;;;5088944;28;20028;-72
2022/02/12 11:16:16;;;;;;;11.55;2.17;;;;;;;;;;5097069;28;20071;-72
2022/02/12 11:18:42;;;;;;;10.57;2.70;;;;;;;;;;5094574;28;20026;-77
2022/02/12 11:21:07;;;;;;;13.00;2.75;;;;;;;;;;5091016;28;20063;-72
2022/02/12 11:26:42;;;;;;;12.05;2.58;;;;;;;;;;5059878;28;20137;-72
2022/02/12 11:29:25;;;;;;;9.07;3.13;;;;;;;;;;5068882;28;20564;-74
2022/02/12 11:32:13;;;;;;;14.32;2.35;;;;;;;;;;5061144;28;20107;-72
2022/02/12 11:34:57;;;;;;;6.28;2.28;;;;;;;;;;5118260;22;20044;-86
2022/02/12 11:37:38;;;;;;;6.65;2.03;;;;;;;;;;5059719;28;20019;-88
2022/02/12 11:40:18;;;;;;;15.32;3.33;;;;;;;;;;5035164;28;20070;-88
2022/02/12 11:42:51;;;;;;;11.43;3.65;;;;;;;;;;5038564;28;20434;-87
2022/02/12 11:48:27;;;;;;;17.30;3.35;;;;;;;;;;5047059;28;20109;-67
2022/02/12 11:50:56;;;;;;;11.43;2.42;;;;;;;;;;5050155;28;20017;-66
2022/02/12 11:53:56;;;;;;;7.30;2.45;;;;;;;;;;5049227;22;20064;-72
2022/02/12 11:56:22;;;;;;;;;;;;;;;;;;4976314;28;20549;-72
2022/02/12 11:58:51;;;;;;;8.93;2.22;;;;;;;;;;5028250;28;20513;-74
2022/02/12 12:01:24;;;;;;;8.52;2.42;;;;;;;;;;5027272;28;20116;-73
2022/02/12 12:04:05;;;;;;;11.70;3.20;;;;;;;;;;5025529;28;20036;-71
2022/02/12 12:06:30;;;;;;;;;;;;;;;;;;5027927;28;20029;-75
2022/02/12 12:09:06;;;;;;;6.80;1.92;;;;;;;;;;5011299;28;19916;-71
2022/02/12 12:11:31;;;;;;;11.68;1.98;;;;;;;;;;5021249;28;20025;-73
2022/02/12 12:13:59;;;;;;;6.55;1.35;;;;;;;;;;5023835;28;20030;-74
2022/02/12 12:16:28;;;;;;;11.30;1.35;;;;;;;;;;5028396;28;20421;-74
2022/02/12 12:18:54;;;;;;;18.48;3.85;;;;;;;;;;5027559;28;20071;-74
2022/02/12 12:21:19;;;;;;;4.70;1.60;;;;;;;;;;5030160;28;20108;-73
2022/02/12 12:23:52;;;;;;;14.68;2.15;;;;;;;;;;5029645;28;20119;-73
2022/02/12 12:26:18;;;;;;;3.28;1.48;;;;;;;;;;5028538;28;20152;-73
2022/02/12 12:30:43;;;;;;;12.68;3.03;;;;;;;;;;5030107;28;20448;-73
2022/02/12 12:31:30;;;;;;;12.15;2.70;;;;;;;;;;5030143;28;20029;-73
2022/02/12 12:34:05;;;;;;;10.43;2.80;;;;;;;;;;5029435;28;20484;-73
2022/02/12 12:36:36;;;;;;;7.78;1.95;;;;;;;;;;5029852;28;20018;-74
2022/02/12 12:39:08;;;;;;;18.02;3.38;;;;;;;;;;5030024;28;20049;-74
2022/02/12 12:41:34;;;;;;;8.13;2.13;;;;;;;;;;5030158;28;20470;-73
2022/02/12 12:44:20;;;;;;;7.82;1.83;;;;;;;;;;5029295;28;20037;-71
2022/02/12 12:46:46;;;;;;;3.00;1.02;;;;;;;;;;5028978;28;20092;-74
2022/02/12 12:49:23;;;;;;;18.33;2.85;;;;;;;;;;5029920;28;20025;-73
2022/02/12 12:51:49;;;;;;;18.63;2.47;;;;;;;;;;5029784;28;20026;-73
2022/02/12 12:54:14;;;;;;;10.05;3.22;;;;;;;;;;5029283;28;20025;-73
2022/02/12 12:56:40;;;;;;;2.70;1.27;;;;;;;;;;5029708;28;20024;-72
2022/02/12 12:59:06;;;;;;;4.22;1.25;;;;;;;;;;5029385;28;20030;-74
2022/02/12 13:01:32;;;;;;;2.95;1.65;;;;;;;;;;5031301;28;20412;-73
2022/02/12 13:03:58;;;;;;;9.93;3.30;;;;;;;;;;5032859;28;20024;-72
2022/02/12 13:06:23;;;;;;;6.63;1.85;;;;;;;;;;5032917;28;20061;-73
2022/02/12 13:08:48;;;;;;;11.85;1.80;;;;;;;;;;5031730;28;20096;-72
2022/02/12 13:11:30;;;;;;;9.27;3.03;;;;;;;;;;5030454;28;20500;-73
2022/02/12 13:14:08;;;;;;;8.27;2.00;;;;;;;;;;5031977;28;20033;-73
2022/02/12 13:16:34;;;;;;;6.43;2.55;;;;;;;;;;5025987;28;20020;-73
2022/02/12 13:19:02;;;;;;;10.55;1.83;;;;;;;;;;5032828;28;20537;-71
2022/02/12 13:21:28;;;;;;;11.82;4.38;;;;;;;;;;5032522;28;20022;-74
2022/02/12 13:24:00;;;;;;;12.55;1.52;;;;;;;;;;5035281;28;20022;-73
2022/02/12 13:26:26;;;;;;;6.00;2.50;;;;;;;;;;5033210;28;20405;-73
2022/02/12 13:28:52;;;;;;;10.07;2.88;;;;;;;;;;5031713;28;20029;-71
2022/02/12 13:31:17;;;;;;;6.10;1.77;;;;;;;;;;5031367;28;20037;-71
2022/02/12 13:33:55;;;;;;;7.93;2.27;;;;;;;;;;5032087;28;20031;-71
2022/02/12 13:36:20;;;;;;;17.50;3.08;;;;;;;;;;5031025;28;20253;-71
2022/02/12 13:38:45;;;;;;;17.40;2.43;;;;;;;;;;5038430;28;20021;-72
2022/02/12 13:41:11;;;;;;;5.40;1.38;;;;;;;;;;5031330;28;20356;-71
2022/02/12 13:43:43;;;;;;;8.40;1.83;;;;;;;;;;5031667;28;20048;-71
2022/02/12 13:46:08;;;;;;;4.70;1.80;;;;;;;;;;5040746;28;20271;-71
2022/02/12 13:48:41;;;;;;;7.22;2.70;;;;;;;;;;5039420;28;20033;-71
2022/02/12 13:51:07;;;;;;;6.47;2.00;;;;;;;;;;5030452;28;20113;-71
2022/02/12 13:53:40;;;;;;;12.40;2.65;;;;;;;;;;5033247;28;20021;-71
2022/02/12 13:56:06;;;;;;;14.70;2.38;;;;;;;;;;5036457;28;20289;-71
2022/02/12 13:58:31;;;;;;;16.83;2.73;;;;;;;;;;5032850;28;20029;-71
2022/02/12 14:00:57;;;;;;;7.57;2.77;;;;;;;;;;5035944;28;20259;-71
2022/02/12 14:03:33;;;;;;;3.90;1.85;;;;;;;;;;5032010;28;20278;-71
2022/02/12 14:05:58;;;;;;;6.22;1.98;;;;;;;;;;5031495;28;20033;-71
2022/02/12 14:08:24;;;;;;;3.40;1.30;;;;;;;;;;5045671;28;20602;-72
2022/02/12 14:10:49;;;;;;;4.88;1.55;;;;;;;;;;5030975;28;20037;-71
2022/02/12 14:13:14;;;;;;;10.02;2.05;;;;;;;;;;5033840;28;20021;-72
2022/02/12 14:15:39;;;;;;;5.93;1.85;;;;;;;;;;5027367;28;20048;-72
2022/02/12 14:18:04;;;;;;;2.43;1.53;;;;;;;;;;5034448;28;20283;-72
2022/02/12 14:20:30;;;;;;;8.40;2.15;;;;;;;;;;5038322;28;20296;-72
2022/02/12 14:22:55;;;;;;;10.55;2.47;;;;;;;;;;5016893;28;20392;-72
2022/02/12 14:25:20;;;;;;;7.60;2.03;;;;;;;;;;5033089;28;20279;-72
2022/02/12 14:27:45;;;;;;;12.95;2.00;;;;;;;;;;5031217;28;20740;-72
2022/02/12 14:30:11;;;;;;;10.25;2.40;;;;;;;;;;5035583;28;20520;-72
2022/02/12 14:32:36;;;;;;;6.97;1.52;;;;;;;;;;5034298;28;20038;-72
2022/02/12 14:35:01;;;;;;;7.45;2.35;;;;;;;;;;5044961;28;20035;-72
2022/02/12 14:37:27;;;;;;;13.38;1.98;;;;;;;;;;5018623;28;20021;-72
2022/02/12 14:39:53;;;;;;;7.68;1.48;;;;;;;;;;5012414;28;20026;-72
2022/02/12 14:42:18;;;;;;;5.07;1.48;;;;;;;;;;5027053;28;20478;-73
2022/02/12 14:44:43;;;;;;;4.43;1.60;;;;;;;;;;5038661;28;20029;-72
2022/02/12 14:47:12;;;;;;;7.25;1.50;;;;;;;;;;5024321;28;20040;-72
2022/02/12 14:49:37;;;;;;;6.55;1.67;;;;;;;;;;5030865;28;20489;-72